sensor_id;sensor_type;location;lat;lon;timestamp;P1;durP1;ratioP1;P2;durP2;ratioP2
43664;SDS011;29263;48.172;11.484;2023-08-21T00:01:17;9.73;;;5.75;;
43664;SDS011;29263;48.172;11.484;2023-08-21T00:03:43;10.55;;;6.57;;
43664;SDS011;29263;48.172;11.484;2023-08-21T00:06:09;6.65;;;5.60;;
43664;SDS011;29263;48.172;11.484;2023-08-21T00:08:35;7.05;;;5.85;;
43664;SDS011;29263;48.172;11.484;2023-08-21T00:11:00;5.90;;;5.40;;
43664;SDS011;29263;48.172;11.484;2023-08-21T00:13:26;6.97;;;5.88;;
43664;SDS011;29263;48.172;11.484;2023-08-21T00:15:51;7.32;;;5.40;;
43664;SDS011;29263;48.172;11.484;2023-08-21T00:18:17;7.80;;;6.15;;
43664;SDS011;29263;48.172;11.484;2023-08-21T00:20:43;8.15;;;6.10;;
43664;SDS011;29263;48.172;11.484;2023-08-21T00:23:08;7.50;;;5.20;;
43664;SDS011;29263;48.172;11.484;2023-08-21T00:25:34;6.88;;;6.13;;
43664;SDS011;29263;48.172;11.484;2023-08-21T00:28:00;8.63;;;5.97;;
43664;SDS011;29263;48.172;11.484;2023-08-21T00:30:26;7.50;;;6.55;;
43664;SDS011;29263;48.172;11.484;2023-08-21T00:32:51;8.93;;;5.93;;
43664;SDS011;29263;48.172;11.484;2023-08-21T00:35:17;7.95;;;5.68;;
43664;SDS011;29263;48.172;11.484;2023-08-21T00:37:43;8.23;;;5.97;;
43664;SDS011;29263;48.172;11.484;2023-08-21T00:40:08;7.78;;;6.07;;
43664;SDS011;29263;48.172;11.484;2023-08-21T00:42:34;7.93;;;6.22;;
43664;SDS011;29263;48.172;11.484;2023-08-21T00:45:00;6.50;;;5.75;;
43664;SDS011;29263;48.172;11.484;2023-08-21T00:47:26;9.52;;;6.43;;
43664;SDS011;29263;48.172;11.484;2023-08-21T00:49:51;9.38;;;6.30;;
43664;SDS011;29263;48.172;11.484;2023-08-21T00:52:17;7.88;;;5.70;;
43664;SDS011;29263;48.172;11.484;2023-08-21T00:54:43;9.05;;;6.20;;
43664;SDS011;29263;48.172;11.484;2023-08-21T00:57:10;6.60;;;5.43;;
43664;SDS011;29263;48.172;11.484;2023-08-21T00:59:36;6.63;;;5.78;;
43664;SDS011;29263;48.172;11.484;2023-08-21T01:02:03;5.90;;;5.30;;
43664;SDS011;29263;48.172;11.484;2023-08-21T01:04:28;7.40;;;5.80;;
43664;SDS011;29263;48.172;11.484;2023-08-21T01:06:54;8.15;;;6.47;;
43664;SDS011;29263;48.172;11.484;2023-08-21T01:09:34;9.50;;;6.10;;
43664;SDS011;29263;48.172;11.484;2023-08-21T01:15:02;7.80;;;6.15;;
43664;SDS011;29263;48.172;11.484;2023-08-21T01:17:30;7.05;;;6.28;;
43664;SDS011;29263;48.172;11.484;2023-08-21T01:20:02;8.05;;;5.93;;
43664;SDS011;29263;48.172;11.484;2023-08-21T01:22:35;6.88;;;6.18;;
43664;SDS011;29263;48.172;11.484;2023-08-21T01:25:03;8.90;;;6.20;;
43664;SDS011;29263;48.172;11.484;2023-08-21T01:27:30;7.82;;;5.93;;
43664;SDS011;29263;48.172;11.484;2023-08-21T01:29:56;8.75;;;5.75;;
43664;SDS011;29263;48.172;11.484;2023-08-21T01:32:37;6.78;;;5.68;;
43664;SDS011;29263;48.172;11.484;2023-08-21T01:35:10;9.60;;;5.88;;
43664;SDS011;29263;48.172;11.484;2023-08-21T01:37:36;6.88;;;5.85;;
43664;SDS011;29263;48.172;11.484;2023-08-21T01:40:02;6.28;;;5.40;;
43664;SDS011;29263;48.172;11.484;2023-08-21T01:42:29;8.55;;;5.53;;
43664;SDS011;29263;48.172;11.484;2023-08-21T01:44:54;10.95;;;6.13;;
43664;SDS011;29263;48.172;11.484;2023-08-21T01:47:20;7.15;;;5.82;;
43664;SDS011;29263;48.172;11.484;2023-08-21T01:49:45;6.28;;;5.68;;
43664;SDS011;29263;48.172;11.484;2023-08-21T01:52:11;9.32;;;5.78;;
43664;SDS011;29263;48.172;11.484;2023-08-21T01:54:37;6.78;;;5.82;;
43664;SDS011;29263;48.172;11.484;2023-08-21T01:57:02;7.03;;;6.32;;
43664;SDS011;29263;48.172;11.484;2023-08-21T01:59:28;8.70;;;5.95;;
43664;SDS011;29263;48.172;11.484;2023-08-21T02:01:54;6.78;;;5.70;;
43664;SDS011;29263;48.172;11.484;2023-08-21T02:04:19;6.90;;;5.20;;
43664;SDS011;29263;48.172;11.484;2023-08-21T02:06:45;8.00;;;5.28;;
43664;SDS011;29263;48.172;11.484;2023-08-21T02:09:10;6.82;;;5.63;;
43664;SDS011;29263;48.172;11.484;2023-08-21T02:11:36;6.03;;;5.25;;
43664;SDS011;29263;48.172;11.484;2023-08-21T02:14:02;10.05;;;5.95;;
43664;SDS011;29263;48.172;11.484;2023-08-21T02:16:27;7.50;;;5.13;;
43664;SDS011;29263;48.172;11.484;2023-08-21T02:18:53;7.68;;;5.78;;
43664;SDS011;29263;48.172;11.484;2023-08-21T02:21:19;6.53;;;5.13;;
43664;SDS011;29263;48.172;11.484;2023-08-21T02:23:45;8.45;;;5.38;;
43664;SDS011;29263;48.172;11.484;2023-08-21T02:26:11;6.50;;;5.05;;
43664;SDS011;29263;48.172;11.484;2023-08-21T02:28:37;6.38;;;4.85;;
43664;SDS011;29263;48.172;11.484;2023-08-21T02:31:02;6.40;;;5.05;;
43664;SDS011;29263;48.172;11.484;2023-08-21T02:33:28;6.68;;;5.00;;
43664;SDS011;29263;48.172;11.484;2023-08-21T02:35:53;8.10;;;5.65;;
43664;SDS011;29263;48.172;11.484;2023-08-21T02:38:19;6.30;;;5.18;;
43664;SDS011;29263;48.172;11.484;2023-08-21T02:40:45;6.68;;;5.78;;
43664;SDS011;29263;48.172;11.484;2023-08-21T02:43:10;5.88;;;5.28;;
43664;SDS011;29263;48.172;11.484;2023-08-21T02:45:36;6.32;;;5.70;;
43664;SDS011;29263;48.172;11.484;2023-08-21T02:48:02;7.13;;;5.10;;
43664;SDS011;29263;48.172;11.484;2023-08-21T02:50:27;7.70;;;5.90;;
43664;SDS011;29263;48.172;11.484;2023-08-21T02:52:53;8.05;;;5.43;;
43664;SDS011;29263;48.172;11.484;2023-08-21T02:55:19;9.55;;;5.30;;
43664;SDS011;29263;48.172;11.484;2023-08-21T02:57:45;5.78;;;5.13;;
43664;SDS011;29263;48.172;11.484;2023-08-21T03:00:11;5.93;;;5.07;;
43664;SDS011;29263;48.172;11.484;2023-08-21T03:02:37;6.05;;;5.30;;
43664;SDS011;29263;48.172;11.484;2023-08-21T03:05:03;6.28;;;5.20;;
43664;SDS011;29263;48.172;11.484;2023-08-21T03:07:29;5.60;;;4.95;;
43664;SDS011;29263;48.172;11.484;2023-08-21T03:09:55;6.05;;;5.45;;
43664;SDS011;29263;48.172;11.484;2023-08-21T03:12:20;7.35;;;5.47;;
43664;SDS011;29263;48.172;11.484;2023-08-21T03:14:46;8.45;;;5.78;;
43664;SDS011;29263;48.172;11.484;2023-08-21T03:17:11;7.05;;;5.70;;
43664;SDS011;29263;48.172;11.484;2023-08-21T03:19:37;10.00;;;5.88;;
43664;SDS011;29263;48.172;11.484;2023-08-21T03:22:03;7.03;;;5.40;;
43664;SDS011;29263;48.172;11.484;2023-08-21T03:24:28;10.90;;;5.55;;
43664;SDS011;29263;48.172;11.484;2023-08-21T03:26:54;7.30;;;5.55;;
43664;SDS011;29263;48.172;11.484;2023-08-21T03:29:19;7.70;;;5.25;;
43664;SDS011;29263;48.172;11.484;2023-08-21T03:31:49;6.25;;;5.57;;
43664;SDS011;29263;48.172;11.484;2023-08-21T03:34:15;6.43;;;5.20;;
43664;SDS011;29263;48.172;11.484;2023-08-21T03:36:40;7.30;;;5.25;;
43664;SDS011;29263;48.172;11.484;2023-08-21T03:39:06;6.18;;;5.57;;
43664;SDS011;29263;48.172;11.484;2023-08-21T03:41:32;6.70;;;5.55;;
43664;SDS011;29263;48.172;11.484;2023-08-21T03:43:57;7.60;;;5.40;;
43664;SDS011;29263;48.172;11.484;2023-08-21T03:46:23;8.48;;;5.53;;
43664;SDS011;29263;48.172;11.484;2023-08-21T03:48:49;9.02;;;5.93;;
43664;SDS011;29263;48.172;11.484;2023-08-21T03:51:15;6.18;;;5.38;;
43664;SDS011;29263;48.172;11.484;2023-08-21T03:53:41;6.70;;;5.47;;
43664;SDS011;29263;48.172;11.484;2023-08-21T03:56:06;6.20;;;5.03;;
43664;SDS011;29263;48.172;11.484;2023-08-21T03:58:33;6.18;;;5.20;;
43664;SDS011;29263;48.172;11.484;2023-08-21T04:00:58;6.65;;;5.50;;
43664;SDS011;29263;48.172;11.484;2023-08-21T04:03:24;6.25;;;5.07;;
43664;SDS011;29263;48.172;11.484;2023-08-21T04:05:50;7.20;;;5.63;;
43664;SDS011;29263;48.172;11.484;2023-08-21T04:08:18;9.90;;;6.30;;
43664;SDS011;29263;48.172;11.484;2023-08-21T04:10:44;7.95;;;5.50;;
43664;SDS011;29263;48.172;11.484;2023-08-21T04:13:10;6.20;;;5.60;;
43664;SDS011;29263;48.172;11.484;2023-08-21T04:15:35;6.20;;;5.60;;
43664;SDS011;29263;48.172;11.484;2023-08-21T04:18:01;8.43;;;5.90;;
43664;SDS011;29263;48.172;11.484;2023-08-21T04:20:27;6.43;;;5.55;;
43664;SDS011;29263;48.172;11.484;2023-08-21T04:22:52;7.72;;;5.93;;
43664;SDS011;29263;48.172;11.484;2023-08-21T04:25:18;6.07;;;5.30;;
43664;SDS011;29263;48.172;11.484;2023-08-21T04:27:43;8.38;;;5.25;;
43664;SDS011;29263;48.172;11.484;2023-08-21T04:30:09;6.82;;;5.55;;
43664;SDS011;29263;48.172;11.484;2023-08-21T04:32:36;9.95;;;6.10;;
43664;SDS011;29263;48.172;11.484;2023-08-21T04:35:01;8.30;;;6.00;;
43664;SDS011;29263;48.172;11.484;2023-08-21T04:37:27;6.72;;;5.40;;
43664;SDS011;29263;48.172;11.484;2023-08-21T04:39:53;7.50;;;5.50;;
43664;SDS011;29263;48.172;11.484;2023-08-21T04:42:19;8.15;;;5.38;;
43664;SDS011;29263;48.172;11.484;2023-08-21T04:44:45;7.15;;;6.35;;
43664;SDS011;29263;48.172;11.484;2023-08-21T04:49:45;7.88;;;5.53;;
43664;SDS011;29263;48.172;11.484;2023-08-21T04:52:11;7.75;;;5.40;;
43664;SDS011;29263;48.172;11.484;2023-08-21T04:54:37;7.90;;;5.88;;
43664;SDS011;29263;48.172;11.484;2023-08-21T04:57:02;7.45;;;5.35;;
43664;SDS011;29263;48.172;11.484;2023-08-21T04:59:28;7.55;;;5.03;;
43664;SDS011;29263;48.172;11.484;2023-08-21T05:01:53;6.57;;;5.70;;
43664;SDS011;29263;48.172;11.484;2023-08-21T05:04:19;6.60;;;5.88;;
43664;SDS011;29263;48.172;11.484;2023-08-21T05:06:45;8.27;;;5.38;;
43664;SDS011;29263;48.172;11.484;2023-08-21T05:09:10;6.82;;;5.45;;
43664;SDS011;29263;48.172;11.484;2023-08-21T05:11:36;6.35;;;5.72;;
43664;SDS011;29263;48.172;11.484;2023-08-21T05:14:01;6.85;;;5.60;;
43664;SDS011;29263;48.172;11.484;2023-08-21T05:16:27;7.43;;;5.35;;
43664;SDS011;29263;48.172;11.484;2023-08-21T05:18:52;6.85;;;4.97;;
43664;SDS011;29263;48.172;11.484;2023-08-21T05:21:18;5.93;;;4.53;;
43664;SDS011;29263;48.172;11.484;2023-08-21T05:23:44;7.05;;;5.63;;
43664;SDS011;29263;48.172;11.484;2023-08-21T05:26:09;5.10;;;4.57;;
43664;SDS011;29263;48.172;11.484;2023-08-21T05:28:35;6.93;;;5.47;;
43664;SDS011;29263;48.172;11.484;2023-08-21T05:31:00;8.60;;;4.72;;
43664;SDS011;29263;48.172;11.484;2023-08-21T05:33:26;5.68;;;4.90;;
43664;SDS011;29263;48.172;11.484;2023-08-21T05:35:51;7.18;;;4.82;;
43664;SDS011;29263;48.172;11.484;2023-08-21T05:38:18;8.65;;;5.10;;
43664;SDS011;29263;48.172;11.484;2023-08-21T05:40:44;8.30;;;5.22;;
43664;SDS011;29263;48.172;11.484;2023-08-21T05:43:09;8.95;;;4.75;;
43664;SDS011;29263;48.172;11.484;2023-08-21T05:45:35;6.03;;;4.50;;
43664;SDS011;29263;48.172;11.484;2023-08-21T05:48:01;6.22;;;4.57;;
43664;SDS011;29263;48.172;11.484;2023-08-21T05:50:26;7.43;;;4.78;;
43664;SDS011;29263;48.172;11.484;2023-08-21T05:52:52;8.23;;;4.82;;
43664;SDS011;29263;48.172;11.484;2023-08-21T05:55:19;6.22;;;4.25;;
43664;SDS011;29263;48.172;11.484;2023-08-21T05:57:45;5.53;;;4.70;;
43664;SDS011;29263;48.172;11.484;2023-08-21T06:00:11;6.90;;;4.15;;
43664;SDS011;29263;48.172;11.484;2023-08-21T06:02:37;5.25;;;4.75;;
43664;SDS011;29263;48.172;11.484;2023-08-21T06:05:03;7.13;;;4.65;;
43664;SDS011;29263;48.172;11.484;2023-08-21T06:07:29;5.53;;;4.43;;
43664;SDS011;29263;48.172;11.484;2023-08-21T06:09:54;4.78;;;4.03;;
43664;SDS011;29263;48.172;11.484;2023-08-21T06:12:20;5.55;;;4.28;;
43664;SDS011;29263;48.172;11.484;2023-08-21T06:14:45;6.28;;;4.30;;
43664;SDS011;29263;48.172;11.484;2023-08-21T06:17:11;5.40;;;3.97;;
43664;SDS011;29263;48.172;11.484;2023-08-21T06:19:37;5.03;;;4.03;;
43664;SDS011;29263;48.172;11.484;2023-08-21T06:22:02;6.97;;;4.43;;
43664;SDS011;29263;48.172;11.484;2023-08-21T06:24:28;5.32;;;4.50;;
43664;SDS011;29263;48.172;11.484;2023-08-21T06:26:54;5.80;;;4.15;;
43664;SDS011;29263;48.172;11.484;2023-08-21T06:29:19;8.90;;;5.22;;
43664;SDS011;29263;48.172;11.484;2023-08-21T06:31:48;6.57;;;4.53;;
43664;SDS011;29263;48.172;11.484;2023-08-21T06:34:13;6.35;;;4.53;;
43664;SDS011;29263;48.172;11.484;2023-08-21T06:36:39;7.40;;;4.40;;
43664;SDS011;29263;48.172;11.484;2023-08-21T06:39:04;6.55;;;4.45;;
43664;SDS011;29263;48.172;11.484;2023-08-21T06:41:30;8.50;;;4.72;;
43664;SDS011;29263;48.172;11.484;2023-08-21T06:43:56;8.30;;;4.10;;
43664;SDS011;29263;48.172;11.484;2023-08-21T06:46:22;7.40;;;4.30;;
43664;SDS011;29263;48.172;11.484;2023-08-21T06:48:48;6.50;;;4.25;;
43664;SDS011;29263;48.172;11.484;2023-08-21T06:51:15;5.03;;;4.20;;
43664;SDS011;29263;48.172;11.484;2023-08-21T06:53:41;6.90;;;4.85;;
43664;SDS011;29263;48.172;11.484;2023-08-21T06:56:07;5.43;;;4.60;;
43664;SDS011;29263;48.172;11.484;2023-08-21T06:58:32;6.18;;;4.25;;
43664;SDS011;29263;48.172;11.484;2023-08-21T07:00:59;6.40;;;4.53;;
43664;SDS011;29263;48.172;11.484;2023-08-21T07:03:25;6.53;;;4.38;;
43664;SDS011;29263;48.172;11.484;2023-08-21T07:05:59;6.45;;;4.38;;
43664;SDS011;29263;48.172;11.484;2023-08-21T07:08:26;6.25;;;4.53;;
43664;SDS011;29263;48.172;11.484;2023-08-21T07:10:52;6.55;;;4.05;;
43664;SDS011;29263;48.172;11.484;2023-08-21T07:13:18;6.32;;;4.18;;
43664;SDS011;29263;48.172;11.484;2023-08-21T07:15:45;8.00;;;4.65;;
43664;SDS011;29263;48.172;11.484;2023-08-21T07:18:11;7.10;;;4.35;;
43664;SDS011;29263;48.172;11.484;2023-08-21T07:20:36;5.75;;;4.38;;
43664;SDS011;29263;48.172;11.484;2023-08-21T07:23:02;6.53;;;5.07;;
43664;SDS011;29263;48.172;11.484;2023-08-21T07:25:28;4.93;;;4.03;;
43664;SDS011;29263;48.172;11.484;2023-08-21T07:27:54;6.40;;;4.38;;
43664;SDS011;29263;48.172;11.484;2023-08-21T07:30:20;6.70;;;3.85;;
43664;SDS011;29263;48.172;11.484;2023-08-21T07:32:47;5.60;;;3.80;;
43664;SDS011;29263;48.172;11.484;2023-08-21T07:35:12;7.13;;;4.28;;
43664;SDS011;29263;48.172;11.484;2023-08-21T07:37:38;7.07;;;4.60;;
43664;SDS011;29263;48.172;11.484;2023-08-21T07:40:06;7.05;;;4.68;;
43664;SDS011;29263;48.172;11.484;2023-08-21T07:42:33;7.30;;;4.50;;
43664;SDS011;29263;48.172;11.484;2023-08-21T07:45:05;4.75;;;4.28;;
43664;SDS011;29263;48.172;11.484;2023-08-21T07:47:31;8.57;;;4.25;;
43664;SDS011;29263;48.172;11.484;2023-08-21T07:49:56;4.75;;;4.20;;
43664;SDS011;29263;48.172;11.484;2023-08-21T07:52:22;4.38;;;3.78;;
43664;SDS011;29263;48.172;11.484;2023-08-21T07:54:54;7.35;;;3.80;;
43664;SDS011;29263;48.172;11.484;2023-08-21T07:57:20;6.25;;;4.60;;
43664;SDS011;29263;48.172;11.484;2023-08-21T07:59:45;10.05;;;4.43;;
43664;SDS011;29263;48.172;11.484;2023-08-21T08:02:11;5.93;;;4.10;;
43664;SDS011;29263;48.172;11.484;2023-08-21T08:04:37;5.70;;;4.13;;
43664;SDS011;29263;48.172;11.484;2023-08-21T08:07:03;4.60;;;4.10;;
43664;SDS011;29263;48.172;11.484;2023-08-21T08:09:29;9.35;;;4.07;;
43664;SDS011;29263;48.172;11.484;2023-08-21T08:11:55;6.72;;;4.53;;
43664;SDS011;29263;48.172;11.484;2023-08-21T08:14:21;6.40;;;4.47;;
43664;SDS011;29263;48.172;11.484;2023-08-21T08:16:46;6.97;;;4.10;;
43664;SDS011;29263;48.172;11.484;2023-08-21T08:19:12;5.97;;;4.47;;
43664;SDS011;29263;48.172;11.484;2023-08-21T08:21:38;9.85;;;4.72;;
43664;SDS011;29263;48.172;11.484;2023-08-21T08:24:03;6.80;;;4.43;;
43664;SDS011;29263;48.172;11.484;2023-08-21T08:26:29;5.78;;;4.22;;
43664;SDS011;29263;48.172;11.484;2023-08-21T08:28:55;6.72;;;4.25;;
43664;SDS011;29263;48.172;11.484;2023-08-21T08:31:20;5.63;;;4.10;;
43664;SDS011;29263;48.172;11.484;2023-08-21T08:33:48;9.38;;;4.65;;
43664;SDS011;29263;48.172;11.484;2023-08-21T08:36:13;5.47;;;4.40;;
43664;SDS011;29263;48.172;11.484;2023-08-21T08:38:39;7.28;;;4.72;;
43664;SDS011;29263;48.172;11.484;2023-08-21T08:41:07;6.35;;;4.25;;
43664;SDS011;29263;48.172;11.484;2023-08-21T08:43:37;5.40;;;3.85;;
43664;SDS011;29263;48.172;11.484;2023-08-21T08:46:05;6.38;;;3.88;;
43664;SDS011;29263;48.172;11.484;2023-08-21T08:48:34;5.03;;;4.25;;
43664;SDS011;29263;48.172;11.484;2023-08-21T08:51:00;6.53;;;3.90;;
43664;SDS011;29263;48.172;11.484;2023-08-21T08:53:28;6.25;;;4.25;;
43664;SDS011;29263;48.172;11.484;2023-08-21T08:55:54;6.22;;;4.00;;
43664;SDS011;29263;48.172;11.484;2023-08-21T08:58:20;6.20;;;3.50;;
43664;SDS011;29263;48.172;11.484;2023-08-21T09:00:46;6.38;;;4.40;;
43664;SDS011;29263;48.172;11.484;2023-08-21T09:03:11;5.53;;;4.10;;
43664;SDS011;29263;48.172;11.484;2023-08-21T09:05:39;4.95;;;4.22;;
43664;SDS011;29263;48.172;11.484;2023-08-21T09:10:36;4.35;;;4.00;;
43664;SDS011;29263;48.172;11.484;2023-08-21T09:13:08;4.25;;;3.70;;
43664;SDS011;29263;48.172;11.484;2023-08-21T09:15:45;5.50;;;4.13;;
43664;SDS011;29263;48.172;11.484;2023-08-21T09:18:15;4.50;;;3.70;;
43664;SDS011;29263;48.172;11.484;2023-08-21T09:20:41;6.47;;;3.97;;
43664;SDS011;29263;48.172;11.484;2023-08-21T09:23:07;5.95;;;3.75;;
43664;SDS011;29263;48.172;11.484;2023-08-21T09:25:38;5.45;;;3.83;;
43664;SDS011;29263;48.172;11.484;2023-08-21T09:28:05;6.82;;;4.30;;
43664;SDS011;29263;48.172;11.484;2023-08-21T09:30:52;4.45;;;4.05;;
43664;SDS011;29263;48.172;11.484;2023-08-21T09:33:19;4.20;;;3.60;;
43664;SDS011;29263;48.172;11.484;2023-08-21T09:35:46;4.05;;;3.65;;
43664;SDS011;29263;48.172;11.484;2023-08-21T09:38:12;5.40;;;4.10;;
43664;SDS011;29263;48.172;11.484;2023-08-21T09:40:42;4.70;;;4.30;;
43664;SDS011;29263;48.172;11.484;2023-08-21T09:43:15;3.95;;;3.55;;
43664;SDS011;29263;48.172;11.484;2023-08-21T09:45:40;5.18;;;3.80;;
43664;SDS011;29263;48.172;11.484;2023-08-21T09:48:06;6.13;;;3.67;;
43664;SDS011;29263;48.172;11.484;2023-08-21T09:50:33;7.40;;;4.28;;
43664;SDS011;29263;48.172;11.484;2023-08-21T09:53:00;4.47;;;3.88;;
43664;SDS011;29263;48.172;11.484;2023-08-21T09:55:26;4.30;;;3.90;;
43664;SDS011;29263;48.172;11.484;2023-08-21T09:57:56;4.45;;;4.05;;
43664;SDS011;29263;48.172;11.484;2023-08-21T10:03:03;4.35;;;3.50;;
43664;SDS011;29263;48.172;11.484;2023-08-21T10:05:32;4.57;;;3.42;;
43664;SDS011;29263;48.172;11.484;2023-08-21T10:08:03;5.28;;;3.90;;
43664;SDS011;29263;48.172;11.484;2023-08-21T10:10:32;4.55;;;4.10;;
43664;SDS011;29263;48.172;11.484;2023-08-21T10:12:59;7.97;;;4.05;;
43664;SDS011;29263;48.172;11.484;2023-08-21T10:15:27;5.68;;;3.90;;
43664;SDS011;29263;48.172;11.484;2023-08-21T10:17:53;8.20;;;3.63;;
43664;SDS011;29263;48.172;11.484;2023-08-21T10:20:22;4.63;;;3.58;;
43664;SDS011;29263;48.172;11.484;2023-08-21T10:22:52;4.15;;;3.75;;
43664;SDS011;29263;48.172;11.484;2023-08-21T10:25:23;5.05;;;3.70;;
43664;SDS011;29263;48.172;11.484;2023-08-21T10:27:59;5.00;;;3.15;;
43664;SDS011;29263;48.172;11.484;2023-08-21T10:30:28;4.28;;;3.50;;
43664;SDS011;29263;48.172;11.484;2023-08-21T10:32:55;4.35;;;3.38;;
43664;SDS011;29263;48.172;11.484;2023-08-21T10:35:29;5.85;;;3.53;;
43664;SDS011;29263;48.172;11.484;2023-08-21T10:40:41;5.60;;;3.70;;
43664;SDS011;29263;48.172;11.484;2023-08-21T10:43:45;4.15;;;3.33;;
43664;SDS011;29263;48.172;11.484;2023-08-21T10:46:11;6.00;;;3.63;;
43664;SDS011;29263;48.172;11.484;2023-08-21T10:48:38;6.70;;;4.03;;
43664;SDS011;29263;48.172;11.484;2023-08-21T10:51:05;4.50;;;3.50;;
43664;SDS011;29263;48.172;11.484;2023-08-21T10:53:32;4.17;;;3.77;;
43664;SDS011;29263;48.172;11.484;2023-08-21T10:56:02;6.25;;;3.42;;
43664;SDS011;29263;48.172;11.484;2023-08-21T10:58:33;5.25;;;3.17;;
43664;SDS011;29263;48.172;11.484;2023-08-21T11:01:10;3.63;;;2.97;;
43664;SDS011;29263;48.172;11.484;2023-08-21T11:03:38;3.90;;;3.28;;
43664;SDS011;29263;48.172;11.484;2023-08-21T11:06:05;3.28;;;2.88;;
43664;SDS011;29263;48.172;11.484;2023-08-21T11:08:35;3.97;;;3.03;;
43664;SDS011;29263;48.172;11.484;2023-08-21T11:11:02;4.95;;;2.75;;
43664;SDS011;29263;48.172;11.484;2023-08-21T11:13:29;3.57;;;3.23;;
43664;SDS011;29263;48.172;11.484;2023-08-21T11:16:01;3.67;;;3.15;;
43664;SDS011;29263;48.172;11.484;2023-08-21T11:18:32;3.10;;;2.80;;
43664;SDS011;29263;48.172;11.484;2023-08-21T11:23:32;3.30;;;2.95;;
43664;SDS011;29263;48.172;11.484;2023-08-21T11:25:59;5.78;;;3.80;;
43664;SDS011;29263;48.172;11.484;2023-08-21T11:28:25;4.75;;;3.00;;
43664;SDS011;29263;48.172;11.484;2023-08-21T11:30:54;5.78;;;3.45;;
43664;SDS011;29263;48.172;11.484;2023-08-21T11:33:20;4.05;;;3.28;;
43664;SDS011;29263;48.172;11.484;2023-08-21T11:35:46;5.13;;;3.22;;
43664;SDS011;29263;48.172;11.484;2023-08-21T11:38:16;7.20;;;3.90;;
43664;SDS011;29263;48.172;11.484;2023-08-21T11:40:50;3.85;;;3.50;;
43664;SDS011;29263;48.172;11.484;2023-08-21T11:43:20;4.18;;;3.58;;
43664;SDS011;29263;48.172;11.484;2023-08-21T11:45:46;3.47;;;3.17;;
43664;SDS011;29263;48.172;11.484;2023-08-21T11:48:12;5.38;;;3.13;;
43664;SDS011;29263;48.172;11.484;2023-08-21T11:50:37;6.05;;;3.35;;
43664;SDS011;29263;48.172;11.484;2023-08-21T11:53:04;6.82;;;3.28;;
43664;SDS011;29263;48.172;11.484;2023-08-21T11:55:30;3.65;;;3.13;;
43664;SDS011;29263;48.172;11.484;2023-08-21T11:57:56;5.68;;;3.10;;
43664;SDS011;29263;48.172;11.484;2023-08-21T12:00:28;4.63;;;2.90;;
43664;SDS011;29263;48.172;11.484;2023-08-21T12:02:56;4.25;;;3.22;;
43664;SDS011;29263;48.172;11.484;2023-08-21T12:05:23;4.07;;;3.15;;
43664;SDS011;29263;48.172;11.484;2023-08-21T12:07:49;3.78;;;2.80;;
43664;SDS011;29263;48.172;11.484;2023-08-21T12:10:21;4.25;;;3.10;;
43664;SDS011;29263;48.172;11.484;2023-08-21T12:12:48;4.03;;;3.20;;
43664;SDS011;29263;48.172;11.484;2023-08-21T12:15:13;3.80;;;3.38;;
43664;SDS011;29263;48.172;11.484;2023-08-21T12:17:39;3.85;;;3.25;;
43664;SDS011;29263;48.172;11.484;2023-08-21T12:20:05;9.52;;;3.30;;
43664;SDS011;29263;48.172;11.484;2023-08-21T12:22:35;4.65;;;2.97;;
43664;SDS011;29263;48.172;11.484;2023-08-21T12:25:02;6.85;;;2.97;;
43664;SDS011;29263;48.172;11.484;2023-08-21T12:27:29;3.28;;;2.97;;
43664;SDS011;29263;48.172;11.484;2023-08-21T12:29:55;5.53;;;3.35;;
43664;SDS011;29263;48.172;11.484;2023-08-21T12:32:21;3.92;;;2.83;;
43664;SDS011;29263;48.172;11.484;2023-08-21T12:34:46;3.65;;;3.30;;
43664;SDS011;29263;48.172;11.484;2023-08-21T12:37:12;5.72;;;3.40;;
43664;SDS011;29263;48.172;11.484;2023-08-21T12:39:38;5.13;;;3.92;;
43664;SDS011;29263;48.172;11.484;2023-08-21T12:42:03;4.00;;;3.65;;
43664;SDS011;29263;48.172;11.484;2023-08-21T12:44:29;4.60;;;3.15;;
43664;SDS011;29263;48.172;11.484;2023-08-21T12:46:55;5.10;;;3.08;;
43664;SDS011;29263;48.172;11.484;2023-08-21T12:49:21;4.85;;;3.35;;
43664;SDS011;29263;48.172;11.484;2023-08-21T12:51:47;4.55;;;3.33;;
43664;SDS011;29263;48.172;11.484;2023-08-21T12:54:12;4.65;;;3.10;;
43664;SDS011;29263;48.172;11.484;2023-08-21T12:56:38;4.28;;;3.45;;
43664;SDS011;29263;48.172;11.484;2023-08-21T12:59:04;3.95;;;3.55;;
43664;SDS011;29263;48.172;11.484;2023-08-21T13:01:30;4.00;;;3.13;;
43664;SDS011;29263;48.172;11.484;2023-08-21T13:03:58;5.43;;;3.13;;
43664;SDS011;29263;48.172;11.484;2023-08-21T13:06:24;3.50;;;2.70;;
43664;SDS011;29263;48.172;11.484;2023-08-21T13:08:49;2.70;;;2.38;;
43664;SDS011;29263;48.172;11.484;2023-08-21T13:11:15;4.05;;;2.88;;
43664;SDS011;29263;48.172;11.484;2023-08-21T13:13:40;3.47;;;2.97;;
43664;SDS011;29263;48.172;11.484;2023-08-21T13:16:06;5.20;;;2.83;;
43664;SDS011;29263;48.172;11.484;2023-08-21T13:18:31;3.22;;;2.92;;
43664;SDS011;29263;48.172;11.484;2023-08-21T13:20:57;4.25;;;3.00;;
43664;SDS011;29263;48.172;11.484;2023-08-21T13:23:23;6.50;;;3.85;;
43664;SDS011;29263;48.172;11.484;2023-08-21T13:25:48;3.90;;;2.83;;
43664;SDS011;29263;48.172;11.484;2023-08-21T13:28:14;5.38;;;2.88;;
43664;SDS011;29263;48.172;11.484;2023-08-21T13:30:40;3.85;;;3.55;;
43664;SDS011;29263;48.172;11.484;2023-08-21T13:33:06;5.32;;;3.30;;
43664;SDS011;29263;48.172;11.484;2023-08-21T13:35:32;4.25;;;3.35;;
43664;SDS011;29263;48.172;11.484;2023-08-21T13:37:58;3.80;;;3.30;;
43664;SDS011;29263;48.172;11.484;2023-08-21T13:40:24;3.95;;;3.00;;
43664;SDS011;29263;48.172;11.484;2023-08-21T13:42:49;5.22;;;3.00;;
43664;SDS011;29263;48.172;11.484;2023-08-21T13:45:17;5.78;;;3.20;;
43664;SDS011;29263;48.172;11.484;2023-08-21T13:47:47;6.22;;;3.40;;
43664;SDS011;29263;48.172;11.484;2023-08-21T13:50:14;4.05;;;3.55;;
43664;SDS011;29263;48.172;11.484;2023-08-21T13:52:41;6.15;;;3.30;;
43664;SDS011;29263;48.172;11.484;2023-08-21T13:55:08;3.97;;;3.28;;
43664;SDS011;29263;48.172;11.484;2023-08-21T13:57:35;5.90;;;3.67;;
43664;SDS011;29263;48.172;11.484;2023-08-21T14:00:02;7.80;;;3.88;;
43664;SDS011;29263;48.172;11.484;2023-08-21T14:02:33;5.82;;;2.65;;
43664;SDS011;29263;48.172;11.484;2023-08-21T14:04:59;5.07;;;3.45;;
43664;SDS011;29263;48.172;11.484;2023-08-21T14:07:25;5.53;;;3.10;;
43664;SDS011;29263;48.172;11.484;2023-08-21T14:09:51;4.60;;;3.53;;
43664;SDS011;29263;48.172;11.484;2023-08-21T14:12:16;8.98;;;3.35;;
43664;SDS011;29263;48.172;11.484;2023-08-21T14:14:42;5.95;;;3.45;;
43664;SDS011;29263;48.172;11.484;2023-08-21T14:17:08;3.60;;;3.20;;
43664;SDS011;29263;48.172;11.484;2023-08-21T14:19:33;5.05;;;3.10;;
43664;SDS011;29263;48.172;11.484;2023-08-21T14:21:59;6.40;;;3.80;;
43664;SDS011;29263;48.172;11.484;2023-08-21T14:24:26;4.22;;;3.78;;
43664;SDS011;29263;48.172;11.484;2023-08-21T14:26:52;4.40;;;3.53;;
43664;SDS011;29263;48.172;11.484;2023-08-21T14:29:18;5.60;;;3.60;;
43664;SDS011;29263;48.172;11.484;2023-08-21T14:31:43;3.65;;;3.33;;
43664;SDS011;29263;48.172;11.484;2023-08-21T14:34:11;5.35;;;3.80;;
43664;SDS011;29263;48.172;11.484;2023-08-21T14:36:38;7.00;;;3.53;;
43664;SDS011;29263;48.172;11.484;2023-08-21T14:39:03;5.63;;;3.22;;
43664;SDS011;29263;48.172;11.484;2023-08-21T14:41:29;5.22;;;3.45;;
43664;SDS011;29263;48.172;11.484;2023-08-21T14:43:54;6.07;;;3.45;;
43664;SDS011;29263;48.172;11.484;2023-08-21T14:46:20;5.40;;;3.72;;